sensor_id;sensor_type;location;lat;lon;timestamp;pressure;altitude;pressure_sealevel;temperature;humidity
34241;BME280;20503;50.200;19.508;2023-04-08T00:00:07;101661.29;;;2.00;100.00
34241;BME280;20503;50.200;19.508;2023-04-08T00:05:14;101668.67;;;1.98;100.00
34241;BME280;20503;50.200;19.508;2023-04-08T00:10:22;101669.24;;;2.02;100.00
34241;BME280;20503;50.200;19.508;2023-04-08T00:15:30;101668.79;;;1.97;100.00
34241;BME280;20503;50.200;19.508;2023-04-08T00:20:38;101675.56;;;1.91;100.00
34241;BME280;20503;50.200;19.508;2023-04-08T00:25:46;101676.94;;;1.86;100.00
34241;BME280;20503;50.200;19.508;2023-04-08T00:30:53;101680.63;;;1.85;100.00
34241;BME280;20503;50.200;19.508;2023-04-08T00:36:03;101687.28;;;1.81;100.00
34241;BME280;20503;50.200;19.508;2023-04-08T00:41:09;101689.10;;;1.80;100.00
34241;BME280;20503;50.200;19.508;2023-04-08T00:46:16;101686.17;;;1.83;100.00
34241;BME280;20503;50.200;19.508;2023-04-08T00:51:24;101702.03;;;1.77;100.00
34241;BME280;20503;50.200;19.508;2023-04-08T00:56:31;101687.82;;;1.75;100.00
34241;BME280;20503;50.200;19.508;2023-04-08T01:12:08;101697.92;;;1.62;100.00
34241;BME280;20503;50.200;19.508;2023-04-08T01:17:12;101697.32;;;1.59;100.00
34241;BME280;20503;50.200;19.508;2023-04-08T01:22:25;101702.37;;;1.52;100.00
34241;BME280;20503;50.200;19.508;2023-04-08T01:27:27;101700.57;;;1.42;100.00
34241;BME280;20503;50.200;19.508;2023-04-08T01:32:31;101694.10;;;1.33;100.00
34241;BME280;20503;50.200;19.508;2023-04-08T01:37:34;101709.08;;;1.26;100.00
34241;BME280;20503;50.200;19.508;2023-04-08T01:42:43;101710.18;;;1.24;100.00
34241;BME280;20503;50.200;19.508;2023-04-08T01:47:50;101716.20;;;1.16;100.00
34241;BME280;20503;50.200;19.508;2023-04-08T01:52:59;101715.59;;;1.13;100.00
34241;BME280;20503;50.200;19.508;2023-04-08T01:58:08;101721.75;;;1.04;100.00
34241;BME280;20503;50.200;19.508;2023-04-08T02:03:16;101728.34;;;1.11;100.00
34241;BME280;20503;50.200;19.508;2023-04-08T02:08:22;101736.93;;;1.16;100.00
34241;BME280;20503;50.200;19.508;2023-04-08T02:13:31;101721.84;;;1.24;100.00
34241;BME280;20503;50.200;19.508;2023-04-08T02:18:42;101726.58;;;1.32;100.00
34241;BME280;20503;50.200;19.508;2023-04-08T02:23:48;101727.80;;;1.39;100.00
34241;BME280;20503;50.200;19.508;2023-04-08T02:28:55;101729.25;;;1.43;100.00
34241;BME280;20503;50.200;19.508;2023-04-08T02:34:03;101737.48;;;1.41;100.00
34241;BME280;20503;50.200;19.508;2023-04-08T02:39:09;101721.53;;;1.38;100.00
34241;BME280;20503;50.200;19.508;2023-04-08T02:44:18;101748.59;;;1.48;100.00
34241;BME280;20503;50.200;19.508;2023-04-08T02:49:26;101734.15;;;1.49;100.00
34241;BME280;20503;50.200;19.508;2023-04-08T02:54:33;101742.37;;;1.47;100.00
34241;BME280;20503;50.200;19.508;2023-04-08T02:59:42;101741.37;;;1.48;100.00
34241;BME280;20503;50.200;19.508;2023-04-08T03:04:50;101747.86;;;1.46;100.00
34241;BME280;20503;50.200;19.508;2023-04-08T03:09:58;101759.53;;;1.46;100.00
34241;BME280;20503;50.200;19.508;2023-04-08T03:15:06;101761.70;;;1.52;100.00
34241;BME280;20503;50.200;19.508;2023-04-08T03:20:14;101754.75;;;1.50;100.00
34241;BME280;20503;50.200;19.508;2023-04-08T03:25:22;101762.84;;;1.50;100.00
34241;BME280;20503;50.200;19.508;2023-04-08T03:30:30;101771.77;;;1.50;100.00
34241;BME280;20503;50.200;19.508;2023-04-08T03:35:38;101768.70;;;1.55;100.00
34241;BME280;20503;50.200;19.508;2023-04-08T03:40:46;101770.16;;;1.59;100.00
34241;BME280;20503;50.200;19.508;2023-04-08T03:45:54;101774.56;;;1.60;100.00
34241;BME280;20503;50.200;19.508;2023-04-08T03:51:02;101772.84;;;1.59;100.00
34241;BME280;20503;50.200;19.508;2023-04-08T03:56:12;101793.91;;;1.65;100.00
34241;BME280;20503;50.200;19.508;2023-04-08T04:01:18;101784.36;;;1.61;100.00
34241;BME280;20503;50.200;19.508;2023-04-08T04:06:26;101787.67;;;1.64;100.00
34241;BME280;20503;50.200;19.508;2023-04-08T04:11:34;101806.56;;;1.64;100.00
34241;BME280;20503;50.200;19.508;2023-04-08T04:16:42;101798.20;;;1.67;100.00
34241;BME280;20503;50.200;19.508;2023-04-08T04:21:50;101814.75;;;1.74;100.00
34241;BME280;20503;50.200;19.508;2023-04-08T04:26:58;101820.76;;;1.77;100.00
34241;BME280;20503;50.200;19.508;2023-04-08T04:32:05;101819.30;;;1.73;100.00
34241;BME280;20503;50.200;19.508;2023-04-08T04:37:14;101831.55;;;1.77;100.00
34241;BME280;20503;50.200;19.508;2023-04-08T04:42:21;101832.02;;;1.82;100.00
34241;BME280;20503;50.200;19.508;2023-04-08T04:47:29;101846.39;;;1.83;100.00
34241;BME280;20503;50.200;19.508;2023-04-08T04:52:37;101841.22;;;1.79;100.00
34241;BME280;20503;50.200;19.508;2023-04-08T04:57:45;101842.70;;;1.83;100.00
34241;BME280;20503;50.200;19.508;2023-04-08T05:02:53;101854.34;;;1.84;100.00
34241;BME280;20503;50.200;19.508;2023-04-08T05:08:01;101852.27;;;1.77;100.00
34241;BME280;20503;50.200;19.508;2023-04-08T05:13:09;101859.73;;;1.84;100.00
34241;BME280;20503;50.200;19.508;2023-04-08T05:18:16;101861.08;;;1.89;100.00
34241;BME280;20503;50.200;19.508;2023-04-08T05:23:25;101869.78;;;1.93;100.00
34241;BME280;20503;50.200;19.508;2023-04-08T05:28:33;101877.47;;;1.97;100.00
34241;BME280;20503;50.200;19.508;2023-04-08T05:33:41;101877.91;;;2.13;100.00
34241;BME280;20503;50.200;19.508;2023-04-08T05:38:49;101886.63;;;2.17;100.00
34241;BME280;20503;50.200;19.508;2023-04-08T05:43:57;101883.66;;;2.20;100.00
34241;BME280;20503;50.200;19.508;2023-04-08T05:49:05;101894.75;;;2.48;100.00
34241;BME280;20503;50.200;19.508;2023-04-08T05:54:13;101896.13;;;2.43;100.00
34241;BME280;20503;50.200;19.508;2023-04-08T05:59:21;101906.02;;;2.53;100.00
34241;BME280;20503;50.200;19.508;2023-04-08T06:04:29;101909.52;;;2.65;100.00
34241;BME280;20503;50.200;19.508;2023-04-08T06:09:37;101920.72;;;2.60;100.00
34241;BME280;20503;50.200;19.508;2023-04-08T06:14:45;101925.21;;;3.32;100.00
34241;BME280;20503;50.200;19.508;2023-04-08T06:19:53;101938.83;;;3.81;100.00
34241;BME280;20503;50.200;19.508;2023-04-08T06:25:02;101928.53;;;3.75;100.00
34241;BME280;20503;50.200;19.508;2023-04-08T06:30:10;101933.85;;;3.86;100.00
34241;BME280;20503;50.200;19.508;2023-04-08T06:35:17;101941.80;;;4.36;100.00
34241;BME280;20503;50.200;19.508;2023-04-08T06:40:24;101951.40;;;4.50;100.00
34241;BME280;20503;50.200;19.508;2023-04-08T06:45:33;101955.53;;;4.54;100.00
34241;BME280;20503;50.200;19.508;2023-04-08T06:50:41;101965.49;;;4.44;100.00
34241;BME280;20503;50.200;19.508;2023-04-08T06:55:48;101964.66;;;4.53;100.00
34241;BME280;20503;50.200;19.508;2023-04-08T07:00:56;101963.55;;;4.74;100.00
34241;BME280;20503;50.200;19.508;2023-04-08T07:06:04;101968.97;;;4.84;100.00
34241;BME280;20503;50.200;19.508;2023-04-08T07:11:11;101982.53;;;4.74;100.00
34241;BME280;20503;50.200;19.508;2023-04-08T07:16:19;101972.30;;;5.61;100.00
34241;BME280;20503;50.200;19.508;2023-04-08T07:21:27;101975.19;;;6.23;100.00
34241;BME280;20503;50.200;19.508;2023-04-08T07:26:33;101984.14;;;6.60;100.00
34241;BME280;20503;50.200;19.508;2023-04-08T07:31:44;101981.77;;;8.45;100.00
34241;BME280;20503;50.200;19.508;2023-04-08T07:36:49;101996.04;;;6.77;100.00
34241;BME280;20503;50.200;19.508;2023-04-08T07:41:56;101999.77;;;6.31;100.00
34241;BME280;20503;50.200;19.508;2023-04-08T07:47:05;101984.77;;;6.72;100.00
34241;BME280;20503;50.200;19.508;2023-04-08T07:52:13;101993.96;;;6.44;100.00
34241;BME280;20503;50.200;19.508;2023-04-08T07:57:19;102003.55;;;7.35;100.00
34241;BME280;20503;50.200;19.508;2023-04-08T08:02:27;101996.28;;;7.86;100.00
34241;BME280;20503;50.200;19.508;2023-04-08T08:07:35;101998.63;;;9.14;100.00
34241;BME280;20503;50.200;19.508;2023-04-08T08:12:43;102006.61;;;8.83;100.00
34241;BME280;20503;50.200;19.508;2023-04-08T08:17:51;102016.85;;;8.97;100.00
34241;BME280;20503;50.200;19.508;2023-04-08T08:22:59;102027.77;;;8.14;100.00
34241;BME280;20503;50.200;19.508;2023-04-08T08:28:06;102023.67;;;8.85;100.00
34241;BME280;20503;50.200;19.508;2023-04-08T08:33:13;102022.28;;;8.81;100.00
34241;BME280;20503;50.200;19.508;2023-04-08T08:38:22;102031.07;;;9.09;100.00
34241;BME280;20503;50.200;19.508;2023-04-08T08:43:30;102050.94;;;8.10;100.00
34241;BME280;20503;50.200;19.508;2023-04-08T08:48:37;102037.86;;;8.47;100.00
34241;BME280;20503;50.200;19.508;2023-04-08T08:53:46;102047.59;;;7.48;100.00
34241;BME280;20503;50.200;19.508;2023-04-08T08:58:53;102050.55;;;7.37;100.00
34241;BME280;20503;50.200;19.508;2023-04-08T09:04:16;102049.40;;;7.22;100.00
34241;BME280;20503;50.200;19.508;2023-04-08T09:09:16;102043.79;;;7.06;100.00
34241;BME280;20503;50.200;19.508;2023-04-08T09:14:23;102053.99;;;6.60;100.00
34241;BME280;20503;50.200;19.508;2023-04-08T09:19:25;102067.39;;;6.07;100.00
34241;BME280;20503;50.200;19.508;2023-04-08T09:24:33;102069.66;;;6.48;100.00
34241;BME280;20503;50.200;19.508;2023-04-08T09:29:41;102075.05;;;6.58;100.00
34241;BME280;20503;50.200;19.508;2023-04-08T09:34:50;102082.34;;;6.57;100.00
34241;BME280;20503;50.200;19.508;2023-04-08T09:39:56;102086.47;;;6.34;100.00
34241;BME280;20503;50.200;19.508;2023-04-08T09:45:06;102087.30;;;7.33;100.00
34241;BME280;20503;50.200;19.508;2023-04-08T09:50:14;102082.07;;;7.05;100.00
34241;BME280;20503;50.200;19.508;2023-04-08T09:55:21;102082.38;;;7.54;100.00
34241;BME280;20503;50.200;19.508;2023-04-08T10:00:33;102084.28;;;7.19;100.00
34241;BME280;20503;50.200;19.508;2023-04-08T10:05:40;102096.26;;;8.62;100.00
34241;BME280;20503;50.200;19.508;2023-04-08T10:10:43;102091.41;;;9.71;100.00
34241;BME280;20503;50.200;19.508;2023-04-08T10:21:03;102074.24;;;8.05;100.00
34241;BME280;20503;50.200;19.508;2023-04-08T10:26:28;102095.01;;;7.98;100.00
34241;BME280;20503;50.200;19.508;2023-04-08T10:31:21;102103.01;;;7.39;100.00
34241;BME280;20503;50.200;19.508;2023-04-08T10:36:23;102081.68;;;7.52;100.00
34241;BME280;20503;50.200;19.508;2023-04-08T10:41:29;102092.22;;;6.85;100.00
34241;BME280;20503;50.200;19.508;2023-04-08T10:46:37;102100.51;;;6.30;100.00
34241;BME280;20503;50.200;19.508;2023-04-08T10:51:45;102101.95;;;6.61;100.00
34241;BME280;20503;50.200;19.508;2023-04-08T10:56:53;102112.48;;;6.46;100.00
34241;BME280;20503;50.200;19.508;2023-04-08T11:02:00;102092.54;;;7.00;100.00
34241;BME280;20503;50.200;19.508;2023-04-08T11:07:08;102098.51;;;7.30;100.00
34241;BME280;20503;50.200;19.508;2023-04-08T11:12:17;102096.65;;;6.86;100.00
34241;BME280;20503;50.200;19.508;2023-04-08T11:17:25;102101.61;;;7.35;100.00
34241;BME280;20503;50.200;19.508;2023-04-08T11:22:32;102107.02;;;7.00;100.00
34241;BME280;20503;50.200;19.508;2023-04-08T11:27:40;102103.10;;;6.58;100.00
34241;BME280;20503;50.200;19.508;2023-04-08T11:32:48;102100.08;;;6.88;100.00
34241;BME280;20503;50.200;19.508;2023-04-08T11:37:56;102096.83;;;6.85;100.00
34241;BME280;20503;50.200;19.508;2023-04-08T11:43:09;102098.54;;;7.03;100.00
34241;BME280;20503;50.200;19.508;2023-04-08T11:48:13;102094.81;;;7.04;100.00
34241;BME280;20503;50.200;19.508;2023-04-08T11:53:20;102089.30;;;6.96;100.00
34241;BME280;20503;50.200;19.508;2023-04-08T11:58:27;102088.52;;;6.59;100.00
34241;BME280;20503;50.200;19.508;2023-04-08T12:03:34;102090.13;;;6.97;100.00
34241;BME280;20503;50.200;19.508;2023-04-08T12:08:42;102088.49;;;6.86;100.00
34241;BME280;20503;50.200;19.508;2023-04-08T12:13:51;102099.95;;;7.07;100.00
34241;BME280;20503;50.200;19.508;2023-04-08T12:18:58;102091.98;;;6.15;100.00
34241;BME280;20503;50.200;19.508;2023-04-08T12:24:06;102097.95;;;6.28;100.00
34241;BME280;20503;50.200;19.508;2023-04-08T12:29:14;102104.41;;;6.54;100.00
34241;BME280;20503;50.200;19.508;2023-04-08T12:34:21;102097.70;;;6.22;100.00
34241;BME280;20503;50.200;19.508;2023-04-08T12:39:31;102095.86;;;6.49;100.00
34241;BME280;20503;50.200;19.508;2023-04-08T12:44:37;102095.77;;;6.32;100.00
34241;BME280;20503;50.200;19.508;2023-04-08T12:49:45;102095.01;;;6.12;100.00
34241;BME280;20503;50.200;19.508;2023-04-08T12:54:53;102080.47;;;5.94;100.00
34241;BME280;20503;50.200;19.508;2023-04-08T13:00:01;102096.92;;;5.83;100.00
34241;BME280;20503;50.200;19.508;2023-04-08T13:05:09;102097.90;;;5.92;100.00
34241;BME280;20503;50.200;19.508;2023-04-08T13:10:17;102087.35;;;6.25;100.00
34241;BME280;20503;50.200;19.508;2023-04-08T13:15:26;102085.06;;;6.30;100.00
34241;BME280;20503;50.200;19.508;2023-04-08T13:20:32;102087.48;;;6.33;100.00
34241;BME280;20503;50.200;19.508;2023-04-08T13:25:40;102082.87;;;6.43;100.00
34241;BME280;20503;50.200;19.508;2023-04-08T13:30:49;102085.06;;;6.57;100.00
34241;BME280;20503;50.200;19.508;2023-04-08T13:35:55;102084.67;;;6.52;100.00
34241;BME280;20503;50.200;19.508;2023-04-08T13:41:04;102091.87;;;6.44;100.00
34241;BME280;20503;50.200;19.508;2023-04-08T13:46:11;102085.81;;;6.50;100.00
34241;BME280;20503;50.200;19.508;2023-04-08T13:51:19;102080.28;;;6.42;100.00
34241;BME280;20503;50.200;19.508;2023-04-08T13:56:28;102075.36;;;6.55;100.00
34241;BME280;20503;50.200;19.508;2023-04-08T14:01:38;102080.01;;;6.89;100.00
34241;BME280;20503;50.200;19.508;2023-04-08T14:06:43;102080.63;;;6.83;100.00
34241;BME280;20503;50.200;19.508;2023-04-08T14:11:51;102055.88;;;6.59;100.00
34241;BME280;20503;50.200;19.508;2023-04-08T14:16:59;102090.31;;;6.68;100.00
34241;BME280;20503;50.200;19.508;2023-04-08T14:22:09;102079.98;;;6.72;100.00
34241;BME280;20503;50.200;19.508;2023-04-08T14:27:14;102075.20;;;6.56;100.00
34241;BME280;20503;50.200;19.508;2023-04-08T14:32:22;102071.56;;;6.92;100.00
34241;BME280;20503;50.200;19.508;2023-04-08T14:37:30;102076.14;;;6.92;100.00
34241;BME280;20503;50.200;19.508;2023-04-08T14:42:39;102082.84;;;6.97;100.00
34241;BME280;20503;50.200;19.508;2023-04-08T14:47:46;102078.59;;;6.68;100.00
34241;BME280;20503;50.200;19.508;2023-04-08T14:52:54;102079.35;;;6.60;100.00
34241;BME280;20503;50.200;19.508;2023-04-08T14:58:02;102083.91;;;6.60;100.00
34241;BME280;20503;50.200;19.508;2023-04-08T15:03:10;102089.55;;;6.49;100.00
34241;BME280;20503;50.200;19.508;2023-04-08T15:08:17;102089.48;;;6.68;100.00
34241;BME280;20503;50.200;19.508;2023-04-08T15:13:25;102097.15;;;6.72;100.00
34241;BME280;20503;50.200;19.508;2023-04-08T15:18:33;102093.15;;;6.76;100.00
34241;BME280;20503;50.200;19.508;2023-04-08T15:23:42;102086.95;;;6.84;100.00
34241;BME280;20503;50.200;19.508;2023-04-08T15:28:53;102089.36;;;6.87;100.00
34241;BME280;20503;50.200;19.508;2023-04-08T15:34:00;102086.70;;;6.77;100.00
34241;BME280;20503;50.200;19.508;2023-04-08T15:39:06;102079.94;;;6.81;100.00
34241;BME280;20503;50.200;19.508;2023-04-08T15:44:14;102083.99;;;6.95;100.00
34241;BME280;20503;50.200;19.508;2023-04-08T15:49:22;102086.88;;;6.93;100.00
34241;BME280;20503;50.200;19.508;2023-04-08T15:54:32;102088.42;;;6.96;100.00
34241;BME280;20503;50.200;19.508;2023-04-08T15:59:39;102094.43;;;6.99;100.00
34241;BME280;20503;50.200;19.508;2023-04-08T16:04:47;102099.82;;;6.82;100.00
34241;BME280;20503;50.200;19.508;2023-04-08T16:09:54;102096.57;;;6.78;100.00
34241;BME280;20503;50.200;19.508;2023-04-08T16:15:03;102107.59;;;6.77;100.00
34241;BME280;20503;50.200;19.508;2023-04-08T16:20:11;102108.04;;;6.72;100.00
34241;BME280;20503;50.200;19.508;2023-04-08T16:25:19;102113.66;;;6.71;100.00
34241;BME280;20503;50.200;19.508;2023-04-08T16:30:26;102102.65;;;6.63;100.00
34241;BME280;20503;50.200;19.508;2023-04-08T16:35:34;102114.41;;;6.63;100.00
34241;BME280;20503;50.200;19.508;2023-04-08T16:40:41;102101.81;;;6.62;100.00
34241;BME280;20503;50.200;19.508;2023-04-08T16:45:50;102116.70;;;6.58;100.00
34241;BME280;20503;50.200;19.508;2023-04-08T16:50:57;102119.63;;;6.47;100.00
34241;BME280;20503;50.200;19.508;2023-04-08T16:56:15;102120.38;;;6.40;100.00
34241;BME280;20503;50.200;19.508;2023-04-08T17:01:18;102117.78;;;6.38;100.00
34241;BME280;20503;50.200;19.508;2023-04-08T17:06:21;102122.22;;;6.39;100.00
34241;BME280;20503;50.200;19.508;2023-04-08T17:11:29;102143.98;;;6.39;100.00
34241;BME280;20503;50.200;19.508;2023-04-08T17:16:37;102143.67;;;6.42;100.00
34241;BME280;20503;50.200;19.508;2023-04-08T17:21:45;102147.13;;;6.44;100.00
34241;BME280;20503;50.200;19.508;2023-04-08T17:26:54;102152.16;;;6.30;100.00
34241;BME280;20503;50.200;19.508;2023-04-08T17:32:01;102157.22;;;6.15;100.00
34241;BME280;20503;50.200;19.508;2023-04-08T17:37:09;102163.96;;;6.11;100.00
34241;BME280;20503;50.200;19.508;2023-04-08T17:42:18;102159.80;;;6.07;100.00
34241;BME280;20503;50.200;19.508;2023-04-08T17:47:24;102174.39;;;6.06;100.00
34241;BME280;20503;50.200;19.508;2023-04-08T17:52:32;102167.81;;;6.09;100.00
34241;BME280;20503;50.200;19.508;2023-04-08T17:57:41;102171.55;;;6.08;100.00
34241;BME280;20503;50.200;19.508;2023-04-08T18:02:49;102161.70;;;5.97;100.00
34241;BME280;20503;50.200;19.508;2023-04-08T18:07:56;102173.12;;;5.91;100.00
34241;BME280;20503;50.200;19.508;2023-04-08T18:13:04;102172.29;;;5.81;100.00
34241;BME280;20503;50.200;19.508;2023-04-08T18:18:12;102185.25;;;5.78;100.00
34241;BME280;20503;50.200;19.508;2023-04-08T18:23:21;102184.55;;;5.76;100.00
34241;BME280;20503;50.200;19.508;2023-04-08T18:28:28;102195.55;;;5.74;100.00
34241;BME280;20503;50.200;19.508;2023-04-08T18:33:37;102206.70;;;5.71;100.00
34241;BME280;20503;50.200;19.508;2023-04-08T18:38:44;102204.85;;;5.72;100.00
34241;BME280;20503;50.200;19.508;2023-04-08T18:43:53;102212.84;;;5.73;100.00
34241;BME280;20503;50.200;19.508;2023-04-08T18:49:01;102206.57;;;5.73;100.00
34241;BME280;20503;50.200;19.508;2023-04-08T18:54:09;102208.41;;;5.72;100.00
34241;BME280;20503;50.200;19.508;2023-04-08T18:59:16;102199.13;;;5.75;100.00
34241;BME280;20503;50.200;19.508;2023-04-08T19:04:25;102206.28;;;5.76;100.00
34241;BME280;20503;50.200;19.508;2023-04-08T19:09:33;102199.84;;;5.67;100.00
34241;BME280;20503;50.200;19.508;2023-04-08T19:14:40;102204.56;;;5.65;100.00
34241;BME280;20503;50.200;19.508;2023-04-08T19:19:50;102206.99;;;5.68;100.00
34241;BME280;20503;50.200;19.508;2023-04-08T19:24:57;102206.98;;;5.59;100.00
34241;BME280;20503;50.200;19.508;2023-04-08T19:30:06;102203.84;;;5.54;100.00
34241;BME280;20503;50.200;19.508;2023-04-08T19:35:14;102206.27;;;5.48;100.00
34241;BME280;20503;50.200;19.508;2023-04-08T19:40:21;102211.51;;;5.40;100.00
34241;BME280;20503;50.200;19.508;2023-04-08T19:48:43;102204.14;;;5.02;100.00
34241;BME280;20503;50.200;19.508;2023-04-08T19:53:51;102214.58;;;5.07;100.00
34241;BME280;20503;50.200;19.508;2023-04-08T19:59:00;102203.91;;;5.15;100.00
34241;BME280;20503;50.200;19.508;2023-04-08T20:04:07;102208.34;;;5.16;100.00
34241;BME280;20503;50.200;19.508;2023-04-08T20:09:14;102208.65;;;5.22;100.00
34241;BME280;20503;50.200;19.508;2023-04-08T20:14:22;102208.69;;;5.50;100.00
34241;BME280;20503;50.200;19.508;2023-04-08T20:19:30;102211.13;;;5.72;100.00
34241;BME280;20503;50.200;19.508;2023-04-08T20:24:38;102209.16;;;5.84;100.00
34241;BME280;20503;50.200;19.508;2023-04-08T20:29:46;102205.02;;;5.89;100.00
34241;BME280;20503;50.200;19.508;2023-04-08T20:34:54;102210.45;;;5.89;100.00
34241;BME280;20503;50.200;19.508;2023-04-08T20:40:03;102214.75;;;5.92;100.00
34241;BME280;20503;50.200;19.508;2023-04-08T20:45:11;102216.59;;;5.91;100.00
34241;BME280;20503;50.200;19.508;2023-04-08T20:50:19;102216.59;;;5.91;100.00
34241;BME280;20503;50.200;19.508;2023-04-08T20:55:26;102209.32;;;5.92;100.00
34241;BME280;20503;50.200;19.508;2023-04-08T21:00:34;102205.59;;;5.93;100.00
34241;BME280;20503;50.200;19.508;2023-04-08T21:05:42;102194.70;;;5.55;100.00
34241;BME280;20503;50.200;19.508;2023-04-08T21:10:50;102200.11;;;5.36;100.00
34241;BME280;20503;50.200;19.508;2023-04-08T21:15:58;102198.12;;;5.48;100.00
34241;BME280;20503;50.200;19.508;2023-04-08T21:21:08;102203.56;;;5.57;100.00
34241;BME280;20503;50.200;19.508;2023-04-08T21:26:14;102210.70;;;5.58;100.00
34241;BME280;20503;50.200;19.508;2023-04-08T21:31:22;102217.73;;;5.60;100.00
34241;BME280;20503;50.200;19.508;2023-04-08T21:36:30;102217.44;;;5.63;100.00
34241;BME280;20503;50.200;19.508;2023-04-08T21:41:37;102213.84;;;5.63;100.00
34241;BME280;20503;50.200;19.508;2023-04-08T21:46:45;102214.27;;;5.58;100.00
34241;BME280;20503;50.200;19.508;2023-04-08T21:51:53;102206.98;;;5.59;100.00
34241;BME280;20503;50.200;19.508;2023-04-08T21:57:03;102213.84;;;5.53;100.00
34241;BME280;20503;50.200;19.508;2023-04-08T22:02:10;102204.10;;;5.51;100.00
34241;BME280;20503;50.200;19.508;2023-04-08T22:07:17;102204.39;;;5.48;100.00
34241;BME280;20503;50.200;19.508;2023-04-08T22:12:25;102198.66;;;5.42;100.00
34241;BME280;20503;50.200;19.508;2023-04-08T22:17:33;102200.95;;;5.37;100.00
34241;BME280;20503;50.200;19.508;2023-04-08T22:22:41;102204.05;;;5.23;100.00
34241;BME280;20503;50.200;19.508;2023-04-08T22:27:49;102202.32;;;5.12;100.00
34241;BME280;20503;50.200;19.508;2023-04-08T22:32:57;102204.20;;;5.12;100.00
34241;BME280;20503;50.200;19.508;2023-04-08T22:38:05;102194.59;;;5.08;100.00
34241;BME280;20503;50.200;19.508;2023-04-08T22:43:12;102190.02;;;4.99;100.00
34241;BME280;20503;50.200;19.508;2023-04-08T22:48:20;102184.99;;;4.94;100.00
34241;BME280;20503;50.200;19.508;2023-04-08T22:53:29;102192.84;;;4.97;100.00
34241;BME280;20503;50.200;19.508;2023-04-08T22:58:38;102192.32;;;5.03;100.00
34241;BME280;20503;50.200;19.508;2023-04-08T23:03:46;102182.87;;;4.98;100.00
34241;BME280;20503;50.200;19.508;2023-04-08T23:08:53;102193.81;;;4.87;100.00
34241;BME280;20503;50.200;19.508;2023-04-08T23:14:02;102194.66;;;4.78;100.00
34241;BME280;20503;50.200;19.508;2023-04-08T23:19:08;102193.19;;;4.74;100.00
34241;BME280;20503;50.200;19.508;2023-04-08T23:24:18;102191.35;;;4.74;100.00
34241;BME280;20503;50.200;19.508;2023-04-08T23:29:24;102177.91;;;4.73;100.00
34241;BME280;20503;50.200;19.508;2023-04-08T23:34:36;102181.70;;;4.61;100.00
34241;BME280;20503;50.200;19.508;2023-04-08T23:39:40;102188.67;;;4.54;100.00
34241;BME280;20503;50.200;19.508;2023-04-08T23:44:48;102193.93;;;4.46;100.00
34241;BME280;20503;50.200;19.508;2023-04-08T23:49:56;102188.67;;;4.54;100.00
34241;BME280;20503;50.200;19.508;2023-04-08T23:55:04;102186.96;;;4.53;100.00
